createdAt,value
2018-08-16T00:00:27.065Z,17.62
2018-08-16T00:01:27.039Z,17.50
2018-08-16T00:02:27.039Z,17.44
2018-08-16T00:03:27.030Z,17.44
2018-08-16T00:04:27.028Z,17.29
2018-08-16T00:05:27.028Z,17.13
2018-08-16T00:06:27.031Z,17.13
2018-08-16T00:07:27.024Z,17.13
2018-08-16T00:08:27.025Z,17.03
2018-08-16T00:09:27.015Z,16.96
2018-08-16T00:10:27.003Z,17.04
2018-08-16T00:11:27.004Z,17.03
2018-08-16T00:12:27.009Z,16.92
2018-08-16T00:13:27.009Z,16.96
2018-08-16T00:14:27.006Z,16.93
2018-08-16T00:15:27.004Z,16.95
2018-08-16T00:16:26.990Z,16.92
2018-08-16T00:17:27.001Z,16.92
2018-08-16T00:18:26.997Z,16.88
2018-08-16T00:19:26.994Z,17.00
2018-08-16T00:20:26.983Z,16.85
2018-08-16T00:21:26.993Z,16.98
2018-08-16T00:22:26.984Z,16.98
2018-08-16T00:23:26.971Z,17.06
2018-08-16T00:24:26.973Z,17.10
2018-08-16T00:25:26.972Z,17.08
2018-08-16T00:26:26.981Z,17.14
2018-08-16T00:27:26.966Z,17.13
2018-08-16T00:28:26.966Z,17.17
2018-08-16T00:29:26.962Z,17.08
2018-08-16T00:30:26.955Z,17.13
2018-08-16T00:31:26.956Z,17.08
2018-08-16T00:32:26.953Z,17.03
2018-08-16T00:33:26.955Z,17.03
2018-08-16T00:34:26.934Z,16.93
2018-08-16T00:35:26.942Z,16.89
2018-08-16T00:36:26.947Z,16.95
2018-08-16T00:37:26.932Z,16.96
2018-08-16T00:38:26.969Z,16.95
2018-08-16T00:39:26.935Z,16.99
2018-08-16T00:40:26.927Z,16.99
2018-08-16T00:41:26.928Z,17.07
2018-08-16T00:42:26.917Z,17.07
2018-08-16T00:43:26.916Z,16.99
2018-08-16T00:44:26.920Z,17.07
2018-08-16T00:45:26.919Z,17.00
2018-08-16T00:46:26.916Z,16.90
2018-08-16T00:47:26.913Z,16.95
2018-08-16T00:48:27.019Z,16.83
2018-08-16T00:49:26.915Z,16.85
2018-08-16T00:50:26.903Z,16.81
2018-08-16T00:51:26.900Z,16.73
2018-08-16T00:52:26.885Z,16.71
2018-08-16T00:53:26.883Z,16.63
2018-08-16T00:54:26.896Z,16.65
2018-08-16T00:55:26.878Z,16.52
2018-08-16T00:56:26.877Z,16.55
2018-08-16T00:57:26.881Z,16.52
2018-08-16T00:58:26.880Z,16.50
2018-08-16T00:59:26.875Z,16.53
2018-08-16T01:00:26.874Z,16.59
2018-08-16T01:01:26.943Z,16.55
2018-08-16T01:02:26.948Z,16.52
2018-08-16T01:03:26.858Z,16.52
2018-08-16T01:04:26.865Z,16.52
2018-08-16T01:05:26.859Z,16.44
2018-08-16T01:06:26.858Z,16.42
2018-08-16T01:07:26.842Z,16.41
2018-08-16T01:08:26.852Z,16.35
2018-08-16T01:09:26.838Z,16.20
2018-08-16T01:10:26.844Z,16.25
2018-08-16T01:11:26.851Z,16.14
2018-08-16T01:12:26.839Z,16.14
2018-08-16T01:13:26.829Z,16.11
2018-08-16T01:14:26.832Z,16.07
2018-08-16T01:15:26.820Z,16.00
2018-08-16T01:16:26.820Z,16.11
2018-08-16T01:17:26.819Z,16.09
2018-08-16T01:18:26.819Z,16.06
2018-08-16T01:19:26.824Z,16.06
2018-08-16T01:20:26.811Z,16.01
2018-08-16T01:21:26.814Z,16.04
2018-08-16T01:22:26.797Z,16.09
2018-08-16T01:23:26.804Z,16.12
2018-08-16T01:24:26.795Z,16.12
2018-08-16T01:25:26.788Z,16.15
2018-08-16T01:26:26.796Z,16.06
2018-08-16T01:27:26.795Z,16.07
2018-08-16T01:28:26.793Z,16.04
2018-08-16T01:29:26.780Z,16.04
2018-08-16T01:30:26.772Z,16.04
2018-08-16T02:04:57.994Z,15.64
2018-08-16T02:05:57.961Z,15.61
2018-08-16T02:06:57.948Z,15.68
2018-08-16T02:07:57.936Z,15.67
2018-08-16T02:08:57.931Z,15.68
2018-08-16T02:09:57.925Z,15.74
2018-08-16T02:10:57.923Z,15.74
2018-08-16T02:11:57.922Z,15.67
2018-08-16T02:12:57.911Z,15.67
2018-08-16T02:13:57.915Z,15.67
2018-08-16T02:14:57.895Z,15.64
2018-08-16T02:15:57.891Z,15.60
2018-08-16T02:16:57.888Z,15.59
2018-08-16T02:17:57.888Z,15.63
2018-08-16T02:18:57.884Z,15.49
2018-08-16T02:19:57.893Z,15.49
2018-08-16T02:20:57.872Z,15.48
2018-08-16T02:21:57.870Z,15.49
2018-08-16T02:22:57.852Z,15.63
2018-08-16T02:23:57.862Z,15.51
2018-08-16T02:24:57.862Z,15.49
2018-08-16T02:25:57.855Z,15.46
2018-08-16T02:26:57.845Z,15.41
2018-08-16T02:27:57.832Z,15.43
2018-08-16T02:28:57.839Z,15.43
2018-08-16T02:29:57.845Z,15.45
2018-08-16T02:30:57.826Z,15.36
2018-08-16T02:31:57.831Z,15.33
2018-08-16T02:32:57.825Z,15.30
2018-08-16T02:33:57.821Z,15.31
2018-08-16T02:34:57.834Z,15.26
2018-08-16T02:35:57.822Z,15.28
2018-08-16T02:36:57.816Z,15.28
2018-08-16T02:37:57.812Z,15.17
2018-08-16T02:38:57.809Z,15.27
2018-08-16T02:39:57.811Z,15.24
2018-08-16T02:40:57.789Z,15.31
2018-08-16T02:41:57.798Z,15.31
2018-08-16T02:42:57.789Z,15.31
2018-08-16T02:43:57.793Z,15.35
2018-08-16T02:44:57.785Z,15.27
2018-08-16T02:45:57.790Z,15.31
2018-08-16T02:46:57.781Z,15.24
2018-08-16T02:47:57.773Z,15.24
2018-08-16T02:48:57.768Z,15.31
2018-08-16T02:49:57.777Z,15.35
2018-08-16T02:50:57.803Z,15.33
2018-08-16T02:51:57.763Z,15.36
2018-08-16T02:52:57.762Z,15.33
2018-08-16T02:53:57.761Z,15.24
2018-08-16T02:54:58.225Z,15.19
2018-08-16T02:55:57.754Z,15.20
2018-08-16T02:56:57.750Z,15.13
2018-08-16T02:57:57.748Z,15.19
2018-08-16T02:58:57.746Z,15.15
2018-08-16T02:59:57.746Z,15.11
2018-08-16T03:00:57.729Z,15.13
2018-08-16T03:01:57.742Z,15.08
2018-08-16T03:02:57.730Z,14.98
2018-08-16T03:03:57.730Z,15.02
2018-08-16T03:04:57.729Z,14.91
2018-08-16T03:05:57.747Z,14.84
2018-08-16T03:06:57.720Z,14.87
2018-08-16T03:07:57.718Z,14.83
2018-08-16T03:08:57.708Z,14.78
2018-08-16T03:09:57.710Z,14.75
2018-08-16T03:10:57.711Z,14.72
2018-08-16T03:11:57.697Z,14.72
2018-08-16T03:12:57.705Z,14.80
2018-08-16T03:13:57.696Z,14.80
2018-08-16T03:14:57.709Z,14.90
2018-08-16T03:15:57.684Z,14.87
2018-08-16T03:16:57.684Z,14.93
2018-08-16T03:17:57.679Z,14.91
2018-08-16T03:18:57.678Z,14.90
2018-08-16T03:19:57.680Z,14.94
2018-08-16T03:20:57.668Z,14.88
2018-08-16T03:21:57.668Z,14.94
2018-08-16T03:22:57.669Z,14.98
2018-08-16T03:23:57.664Z,14.93
2018-08-16T03:24:57.655Z,14.93
2018-08-16T03:25:57.654Z,14.91
2018-08-16T03:26:57.655Z,14.94
2018-08-16T03:27:57.647Z,14.88
2018-08-16T03:28:57.648Z,14.87
2018-08-16T03:29:57.643Z,14.99
2018-08-16T03:30:57.631Z,14.86
2018-08-16T03:31:57.640Z,14.86
2018-08-16T03:32:57.638Z,14.88
2018-08-16T03:33:57.631Z,14.86
2018-08-16T03:34:57.623Z,14.81
2018-08-16T03:35:57.639Z,14.81
2018-08-16T03:36:57.619Z,14.78
2018-08-16T03:37:57.610Z,14.80
2018-08-16T03:38:57.604Z,14.71
2018-08-16T03:39:57.613Z,14.68
2018-08-16T03:40:57.612Z,14.68
2018-08-16T03:41:57.605Z,14.67
2018-08-16T03:42:57.603Z,14.72
2018-08-16T03:43:57.597Z,14.67
2018-08-16T03:44:57.595Z,14.65
2018-08-16T03:45:57.584Z,14.67
2018-08-16T03:46:57.578Z,14.78
2018-08-16T03:47:57.646Z,14.75
2018-08-16T03:48:57.585Z,14.65
2018-08-16T03:49:57.577Z,14.69
2018-08-16T03:50:57.579Z,14.75
2018-08-16T03:51:57.564Z,14.72
2018-08-16T03:52:57.559Z,14.69
2018-08-16T03:53:57.555Z,14.78
2018-08-16T03:54:57.562Z,14.72
2018-08-16T03:55:57.555Z,14.74
2018-08-16T03:56:57.551Z,14.72
2018-08-16T03:57:57.548Z,14.75
2018-08-16T03:58:57.546Z,14.71
2018-08-16T03:59:57.541Z,14.78
2018-08-16T04:00:57.527Z,14.80
2018-08-16T04:01:57.540Z,14.65
2018-08-16T04:02:57.530Z,14.69
2018-08-16T04:03:57.563Z,14.64
2018-08-16T04:04:57.534Z,14.54
2018-08-16T04:05:57.524Z,14.60
2018-08-16T04:06:57.515Z,14.60
2018-08-16T04:07:57.527Z,14.56
2018-08-16T04:08:57.513Z,14.56
2018-08-16T04:09:57.524Z,14.56
2018-08-16T04:10:57.497Z,14.53
2018-08-16T04:11:57.501Z,14.53
2018-08-16T04:12:57.510Z,14.56
2018-08-16T04:13:57.495Z,14.61
2018-08-16T04:14:57.502Z,14.71
2018-08-16T04:15:57.487Z,14.64
2018-08-16T04:16:57.480Z,14.68
2018-08-16T04:17:57.470Z,14.67
2018-08-16T04:18:57.478Z,14.53
2018-08-16T04:19:57.482Z,14.53
2018-08-16T04:20:57.467Z,14.56
2018-08-16T04:21:57.458Z,14.56
2018-08-16T04:22:57.479Z,14.53
2018-08-16T04:23:57.461Z,14.52
2018-08-16T04:24:57.452Z,14.56
2018-08-16T04:25:57.460Z,14.56
2018-08-16T04:26:57.460Z,14.50
2018-08-16T04:27:57.442Z,14.50
2018-08-16T04:28:57.468Z,14.56
2018-08-16T04:29:57.441Z,14.54
2018-08-16T04:30:57.429Z,14.53
2018-08-16T04:31:57.430Z,14.60
2018-08-16T04:32:57.430Z,14.68
2018-08-16T04:33:57.430Z,14.60
2018-08-16T04:34:57.437Z,14.60
2018-08-16T04:35:57.417Z,14.67
2018-08-16T04:36:57.419Z,14.64
2018-08-16T04:37:57.432Z,14.71
2018-08-16T04:38:57.402Z,14.72
2018-08-16T04:39:57.404Z,14.71
2018-08-16T04:40:57.397Z,14.65
2018-08-16T04:41:57.470Z,14.74
2018-08-16T04:42:57.402Z,14.69
2018-08-16T04:43:57.395Z,14.71
2018-08-16T04:44:57.390Z,14.64
2018-08-16T04:45:57.390Z,14.74
2018-08-16T04:46:57.393Z,14.67
2018-08-16T04:47:57.379Z,14.67
2018-08-16T04:48:57.381Z,14.78
2018-08-16T04:49:57.373Z,14.80
2018-08-16T04:50:57.359Z,14.74
2018-08-16T04:51:57.356Z,14.71
2018-08-16T04:52:57.362Z,14.71
2018-08-16T04:53:57.357Z,14.67
2018-08-16T04:54:57.357Z,14.78
2018-08-16T04:55:57.345Z,14.81
2018-08-16T04:56:57.375Z,14.74
2018-08-16T04:57:57.347Z,14.84
2018-08-16T04:58:57.339Z,14.81
2018-08-16T04:59:57.342Z,14.86
2018-08-16T05:00:57.340Z,14.87
2018-08-16T05:01:57.332Z,14.86
2018-08-16T05:02:57.331Z,14.94
2018-08-16T05:03:57.331Z,14.93
2018-08-16T05:04:57.320Z,14.91
2018-08-16T05:05:57.323Z,14.98
2018-08-16T05:06:57.322Z,15.08
2018-08-16T05:07:57.311Z,15.08
2018-08-16T05:08:57.308Z,15.17
2018-08-16T05:09:57.308Z,15.20
2018-08-16T05:10:57.302Z,15.26
2018-08-16T05:11:57.301Z,15.26
2018-08-16T05:12:57.313Z,15.23
2018-08-16T05:13:57.290Z,15.35
2018-08-16T05:14:57.295Z,15.33
2018-08-16T05:15:57.291Z,15.38
2018-08-16T05:16:57.291Z,15.45
2018-08-16T05:17:57.289Z,15.54
2018-08-16T05:18:57.283Z,15.51
2018-08-16T05:19:57.274Z,15.49
2018-08-16T05:20:57.312Z,15.63
2018-08-16T05:21:57.277Z,15.74
2018-08-16T05:22:57.273Z,15.66
2018-08-16T05:23:57.310Z,15.78
2018-08-16T05:24:57.269Z,15.76
2018-08-16T05:25:57.275Z,15.88
2018-08-16T05:26:57.268Z,15.93
2018-08-16T05:27:57.262Z,15.99
2018-08-16T05:28:57.256Z,15.94
2018-08-16T05:29:57.265Z,16.00
2018-08-16T05:30:57.273Z,16.14
2018-08-16T05:31:57.243Z,16.20
2018-08-16T05:32:57.237Z,16.15
2018-08-16T05:33:57.243Z,16.20
2018-08-16T05:34:57.234Z,16.30
2018-08-16T05:35:57.234Z,16.35
2018-08-16T05:36:57.231Z,16.50
2018-08-16T05:37:57.231Z,16.48
2018-08-16T05:38:57.232Z,16.62
2018-08-16T05:39:57.218Z,16.67
2018-08-16T05:40:57.233Z,16.73
2018-08-16T05:41:57.213Z,16.71
2018-08-16T05:42:57.273Z,16.75
2018-08-16T05:43:57.208Z,16.89
2018-08-16T05:44:57.210Z,16.88
2018-08-16T05:45:57.201Z,17.10
2018-08-16T05:46:57.207Z,17.03
2018-08-16T05:47:57.203Z,17.08
2018-08-16T05:48:57.210Z,17.14
2018-08-16T05:49:57.201Z,17.28
2018-08-16T05:50:57.230Z,17.40
2018-08-16T05:51:57.196Z,17.40
2018-08-16T05:52:57.190Z,17.47
2018-08-16T05:53:57.198Z,17.67
2018-08-16T05:54:57.197Z,17.63
2018-08-16T05:55:57.181Z,17.71
2018-08-16T05:56:57.185Z,17.73
2018-08-16T05:57:57.192Z,17.73
2018-08-16T05:58:57.182Z,17.81
2018-08-16T05:59:57.186Z,17.88
2018-08-16T06:00:57.181Z,17.94
2018-08-16T06:01:57.175Z,17.99
2018-08-16T06:02:57.191Z,18.13
2018-08-16T06:03:57.180Z,18.15
2018-08-16T06:04:57.181Z,18.15
2018-08-16T06:05:57.169Z,18.22
2018-08-16T06:06:57.173Z,18.29
2018-08-16T06:07:57.170Z,18.44
2018-08-16T06:08:57.170Z,18.44
2018-08-16T06:09:57.166Z,18.47
2018-08-16T06:10:57.164Z,18.64
2018-08-16T06:11:57.208Z,18.68
2018-08-16T06:12:57.169Z,18.67
2018-08-16T06:13:57.175Z,18.90
2018-08-16T06:14:57.157Z,18.95
2018-08-16T06:15:57.153Z,18.97
2018-08-16T06:16:57.158Z,18.90
2018-08-16T06:17:57.170Z,19.02
2018-08-16T06:18:57.160Z,19.10
2018-08-16T06:19:57.158Z,19.28
2018-08-16T06:20:57.172Z,19.25
2018-08-16T06:21:57.159Z,19.31
2018-08-16T06:22:57.156Z,19.42
2018-08-16T06:23:57.214Z,19.46
2018-08-16T06:24:57.160Z,19.69
2018-08-16T06:25:57.175Z,19.90
2018-08-16T06:26:57.152Z,19.98
2018-08-16T06:27:57.151Z,19.97
2018-08-16T06:28:57.160Z,20.18
2018-08-16T06:29:57.161Z,20.28
2018-08-16T06:30:57.158Z,20.58
2018-08-16T06:31:57.156Z,20.76
2018-08-16T06:32:57.152Z,20.89
2018-08-16T06:33:57.152Z,20.81
2018-08-16T06:34:57.172Z,20.90
2018-08-16T06:35:57.167Z,21.05
2018-08-16T06:36:57.150Z,21.29
2018-08-16T06:37:57.153Z,21.42
2018-08-16T06:38:57.257Z,21.45
2018-08-16T06:39:57.161Z,21.61
2018-08-16T06:40:57.172Z,21.61
2018-08-16T06:41:57.153Z,21.42
2018-08-16T06:42:57.155Z,21.27
2018-08-16T06:43:57.157Z,21.23
2018-08-16T06:44:57.154Z,21.29
2018-08-16T06:45:57.172Z,21.35
2018-08-16T06:46:57.158Z,21.45
2018-08-16T06:47:57.162Z,21.17
2018-08-16T06:48:57.163Z,20.99
2018-08-16T06:49:57.162Z,21.17
2018-08-16T06:50:57.181Z,21.34
2018-08-16T06:51:57.172Z,21.27
2018-08-16T06:52:57.163Z,21.64
2018-08-16T06:53:57.158Z,21.50
2018-08-16T06:54:57.173Z,21.36
2018-08-16T06:55:57.178Z,21.26
2018-08-16T06:56:57.166Z,21.44
2018-08-16T06:57:57.174Z,21.42
2018-08-16T06:58:57.187Z,21.32
2018-08-16T06:59:57.175Z,21.48
2018-08-16T07:00:57.197Z,21.53
2018-08-16T07:01:57.175Z,21.53
2018-08-16T07:02:57.180Z,21.74
2018-08-16T07:03:57.172Z,21.75
2018-08-16T07:04:57.219Z,21.99
2018-08-16T07:05:57.180Z,22.25
2018-08-16T07:06:57.189Z,22.38
2018-08-16T07:07:57.185Z,22.25
2018-08-16T07:08:57.186Z,22.27
2018-08-16T07:09:57.189Z,22.65
2018-08-16T07:10:57.185Z,22.90
2018-08-16T07:11:57.253Z,23.15
2018-08-16T07:12:57.198Z,23.62
2018-08-16T07:13:57.185Z,23.80
2018-08-16T07:14:57.204Z,23.75
2018-08-16T07:15:57.203Z,23.77
2018-08-16T07:16:57.202Z,23.11
2018-08-16T07:17:57.206Z,22.78
2018-08-16T07:18:57.208Z,22.34
2018-08-16T07:19:57.214Z,22.65
2018-08-16T07:20:57.231Z,23.11
2018-08-16T07:21:57.217Z,23.79
2018-08-16T07:22:57.215Z,24.29
2018-08-16T07:23:57.222Z,24.56
2018-08-16T07:24:57.212Z,24.50
2018-08-16T07:25:57.224Z,24.38
2018-08-16T07:26:57.219Z,24.34
2018-08-16T07:27:57.225Z,24.45
2018-08-16T07:28:57.233Z,25.05
2018-08-16T07:29:57.263Z,25.34
2018-08-16T07:30:57.234Z,25.56
2018-08-16T07:31:57.250Z,25.61
2018-08-16T07:32:57.255Z,25.30
2018-08-16T07:33:57.256Z,25.99
2018-08-16T07:34:57.270Z,25.72
2018-08-16T07:35:57.285Z,25.31
2018-08-16T07:36:57.281Z,26.06
2018-08-16T07:37:57.307Z,26.87
2018-08-16T07:38:57.297Z,27.23
2018-08-16T07:39:57.303Z,26.04
2018-08-16T07:40:57.320Z,25.72
2018-08-16T07:41:57.322Z,24.98
2018-08-16T07:42:57.328Z,26.04
2018-08-16T07:43:57.336Z,26.69
2018-08-16T07:44:57.355Z,26.59
2018-08-16T07:45:57.440Z,26.74
2018-08-16T07:46:57.388Z,26.89
2018-08-16T07:47:57.413Z,26.52
2018-08-16T07:48:57.440Z,27.41
2018-08-16T07:49:57.456Z,27.59
2018-08-16T07:50:58.102Z,27.41
2018-08-16T07:51:57.489Z,27.86
2018-08-16T07:52:58.821Z,27.89
2018-08-16T07:53:57.497Z,27.13
2018-08-16T07:54:57.737Z,26.52
2018-08-16T07:55:57.474Z,26.28
2018-08-16T07:56:57.521Z,26.99
2018-08-16T07:57:57.489Z,27.73
2018-08-16T07:58:57.501Z,28.58
2018-08-16T07:59:57.543Z,28.93
2018-08-16T08:00:57.530Z,29.06
2018-08-16T08:01:57.547Z,28.16
2018-08-16T08:02:57.557Z,28.23
2018-08-16T08:03:57.598Z,28.31
2018-08-16T08:04:57.874Z,28.35
2018-08-16T08:05:57.980Z,29.06
2018-08-16T08:06:59.127Z,28.75
2018-08-16T08:07:57.898Z,28.41
2018-08-16T08:08:57.962Z,29.37
2018-08-16T08:09:58.132Z,28.69
2018-08-16T08:10:58.107Z,28.75
2018-08-16T08:11:58.142Z,29.04
2018-08-16T08:12:58.038Z,29.74
2018-08-16T08:13:58.122Z,30.21
2018-08-16T08:14:57.916Z,30.96
2018-08-16T08:15:58.055Z,30.07
2018-08-16T08:16:57.734Z,30.74
2018-08-16T08:17:57.752Z,31.48
2018-08-16T08:18:57.768Z,32.24
2018-08-16T08:19:57.780Z,32.10
2018-08-16T08:20:57.789Z,32.39
2018-08-16T08:21:57.811Z,32.73
2018-08-16T08:22:57.813Z,32.62
2018-08-16T08:23:57.843Z,32.43
2018-08-16T08:24:57.849Z,30.59
2018-08-16T08:25:57.871Z,31.11
2018-08-16T08:26:57.877Z,30.75
2018-08-16T08:27:57.905Z,30.80
2018-08-16T08:28:57.910Z,30.65
2018-08-16T08:29:57.931Z,31.24
2018-08-16T08:30:57.942Z,31.55
2018-08-16T08:31:57.958Z,31.77
2018-08-16T08:32:57.975Z,32.03
2018-08-16T08:33:57.999Z,31.62
2018-08-16T08:34:58.000Z,30.19
2018-08-16T08:35:58.017Z,29.35
2018-08-16T08:36:58.041Z,29.49
2018-08-16T08:37:58.052Z,29.87
2018-08-16T08:38:58.124Z,30.78
2018-08-16T08:39:58.089Z,31.68
2018-08-16T08:40:58.088Z,32.62
2018-08-16T08:41:58.122Z,32.71
2018-08-16T08:42:58.130Z,31.38
2018-08-16T08:43:58.147Z,30.89
2018-08-16T08:44:58.161Z,31.54
2018-08-16T08:45:58.174Z,32.55
2018-08-16T08:46:58.195Z,32.76
2018-08-16T08:47:58.203Z,32.42
2018-08-16T08:48:58.222Z,32.77
2018-08-16T08:49:58.241Z,33.48
2018-08-16T08:50:58.264Z,33.86
2018-08-16T08:51:58.271Z,34.44
2018-08-16T08:52:58.291Z,34.66
2018-08-16T08:53:58.311Z,34.27
2018-08-16T08:54:58.326Z,33.83
2018-08-16T08:55:58.335Z,33.85
2018-08-16T08:56:58.364Z,34.11
2018-08-16T08:57:58.376Z,33.46
2018-08-16T08:58:58.392Z,32.15
2018-08-16T08:59:58.404Z,31.95
2018-08-16T09:00:58.419Z,31.99
2018-08-16T09:01:58.445Z,32.64
2018-08-16T09:02:58.462Z,32.86
2018-08-16T09:03:58.480Z,32.55
2018-08-16T09:04:58.500Z,32.66
2018-08-16T09:05:58.513Z,32.29
2018-08-16T09:06:58.576Z,32.27
2018-08-16T09:07:58.555Z,33.07
2018-08-16T09:08:58.567Z,33.20
2018-08-16T09:09:58.580Z,32.67
2018-08-16T09:10:58.602Z,30.98
2018-08-16T09:11:58.616Z,31.24
2018-08-16T09:12:58.639Z,30.99
2018-08-16T09:13:58.659Z,30.45
2018-08-16T09:14:58.742Z,30.34
2018-08-16T09:15:58.701Z,30.69
2018-08-16T09:16:58.697Z,31.68
2018-08-16T09:17:58.738Z,32.40
2018-08-16T09:18:58.758Z,32.59
2018-08-16T09:19:58.766Z,33.67
2018-08-16T09:20:58.784Z,34.80
2018-08-16T09:21:58.807Z,35.45
2018-08-16T09:22:58.829Z,34.95
2018-08-16T09:23:58.899Z,35.36
2018-08-16T09:24:58.859Z,34.46
2018-08-16T09:25:58.892Z,34.72
2018-08-16T09:26:58.910Z,34.64
2018-08-16T09:27:58.924Z,35.11
2018-08-16T09:28:58.940Z,33.61
2018-08-16T09:29:58.968Z,33.42
2018-08-16T09:30:58.979Z,33.95
2018-08-16T09:31:58.998Z,35.14
2018-08-16T09:32:59.029Z,35.48
2018-08-16T09:33:59.039Z,35.51
2018-08-16T09:34:59.065Z,36.04
2018-08-16T09:35:59.072Z,34.58
2018-08-16T09:36:59.102Z,34.84
2018-08-16T09:37:59.120Z,34.61
2018-08-16T09:38:59.142Z,34.96
2018-08-16T09:39:59.168Z,35.23
2018-08-16T09:40:59.173Z,35.23
2018-08-16T09:41:59.199Z,34.38
2018-08-16T09:42:59.224Z,34.79
2018-08-16T09:43:59.228Z,34.86
2018-08-16T09:44:59.260Z,35.39
2018-08-16T09:45:59.276Z,35.97
2018-08-16T09:46:59.299Z,36.42
2018-08-16T09:47:59.312Z,34.50
2018-08-16T09:48:59.335Z,33.06
2018-08-16T09:49:59.354Z,32.76
2018-08-16T09:50:59.370Z,32.48
2018-08-16T09:51:59.400Z,33.08
2018-08-16T09:52:59.409Z,33.80
2018-08-16T09:53:59.453Z,32.89
2018-08-16T09:54:59.436Z,33.13
2018-08-16T09:55:59.470Z,33.60
2018-08-16T09:56:59.487Z,33.13
2018-08-16T09:57:59.508Z,33.71
2018-08-16T09:58:59.519Z,33.04
2018-08-16T09:59:59.539Z,33.82
2018-08-16T10:00:59.564Z,33.58
2018-08-16T10:01:59.635Z,33.10
2018-08-16T10:02:59.610Z,33.07
2018-08-16T10:03:59.618Z,32.52
2018-08-16T10:04:59.635Z,32.44
2018-08-16T10:05:59.653Z,32.69
2018-08-16T10:06:59.669Z,31.64
2018-08-16T10:07:59.681Z,30.50
2018-08-16T10:08:59.707Z,31.15
2018-08-16T10:09:59.722Z,30.50
2018-08-16T10:10:59.747Z,30.43
2018-08-16T10:11:59.778Z,29.86
2018-08-16T10:12:59.782Z,29.59
2018-08-16T10:13:59.792Z,29.79
2018-08-16T10:14:59.807Z,30.34
2018-08-16T10:15:59.831Z,30.46
2018-08-16T10:16:59.848Z,30.74
2018-08-16T10:17:59.867Z,30.23
2018-08-16T10:18:59.879Z,30.65
2018-08-16T10:19:59.901Z,31.70
2018-08-16T10:20:59.948Z,32.61
2018-08-16T10:21:59.931Z,32.35
2018-08-16T10:22:59.951Z,32.64
2018-08-16T10:23:59.969Z,33.23
2018-08-16T10:24:59.983Z,33.01
2018-08-16T10:26:00.002Z,33.06
2018-08-16T10:27:00.057Z,32.88
2018-08-16T10:28:00.035Z,33.37
2018-08-16T10:29:00.058Z,33.80
2018-08-16T10:30:00.066Z,33.98
2018-08-16T10:31:00.077Z,33.53
2018-08-16T10:32:00.103Z,33.19
2018-08-16T10:33:00.120Z,33.37
2018-08-16T10:34:00.142Z,32.84
2018-08-16T10:35:00.159Z,32.25
2018-08-16T10:36:00.175Z,32.42
2018-08-16T10:37:00.191Z,33.03
2018-08-16T10:38:00.207Z,33.89
2018-08-16T10:39:00.213Z,33.14
2018-08-16T10:40:00.235Z,32.39
2018-08-16T10:41:00.260Z,31.99
2018-08-16T10:42:00.273Z,31.76
2018-08-16T10:43:00.288Z,32.61
2018-08-16T10:44:00.308Z,32.77
2018-08-16T10:45:00.330Z,32.57
2018-08-16T10:46:00.345Z,32.84
2018-08-16T10:47:00.378Z,32.52
2018-08-16T10:48:00.372Z,32.69
2018-08-16T10:49:00.394Z,32.43
2018-08-16T10:50:00.424Z,31.84
2018-08-16T10:51:00.434Z,31.55
2018-08-16T10:52:00.447Z,31.67
2018-08-16T10:53:00.472Z,31.65
2018-08-16T10:54:00.477Z,31.23
2018-08-16T10:55:00.502Z,31.28
2018-08-16T10:56:00.521Z,31.01
2018-08-16T10:57:00.532Z,31.61
2018-08-16T10:58:00.546Z,32.18
2018-08-16T10:59:00.558Z,32.35
2018-08-16T11:00:00.637Z,31.62
2018-08-16T11:01:00.606Z,31.72
2018-08-16T11:02:00.618Z,31.45
2018-08-16T11:03:00.629Z,31.58
2018-08-16T11:04:00.654Z,31.96
2018-08-16T11:05:00.656Z,31.65
2018-08-16T11:06:00.692Z,31.79
2018-08-16T11:07:00.703Z,31.42
2018-08-16T11:08:00.718Z,31.08
2018-08-16T11:09:00.735Z,31.28
2018-08-16T11:10:00.748Z,31.11
2018-08-16T11:11:00.770Z,31.27
2018-08-16T11:12:00.777Z,31.01
2018-08-16T11:13:00.799Z,31.31
2018-08-16T11:14:00.822Z,32.00
2018-08-16T11:15:00.852Z,32.10
2018-08-16T11:16:00.848Z,32.10
2018-08-16T11:17:00.860Z,32.10
2018-08-16T11:18:00.888Z,32.77
2018-08-16T11:19:00.999Z,32.30
2018-08-16T11:20:00.912Z,31.39
2018-08-16T11:21:00.942Z,31.33
2018-08-16T11:22:00.944Z,31.54
2018-08-16T11:23:00.957Z,31.27
2018-08-16T11:24:00.975Z,32.02
2018-08-16T11:25:00.994Z,31.48
2018-08-16T11:26:01.014Z,32.14
2018-08-16T11:27:01.033Z,31.54
2018-08-16T11:28:01.048Z,31.18
2018-08-16T11:29:01.060Z,31.30
2018-08-16T11:30:01.072Z,31.13
2018-08-16T11:31:01.090Z,31.36
2018-08-16T11:32:01.127Z,31.12
2018-08-16T11:33:01.122Z,31.20
2018-08-16T11:34:01.143Z,32.13
2018-08-16T11:35:01.173Z,31.75
2018-08-16T11:36:01.177Z,32.00
2018-08-16T11:37:01.187Z,32.29
2018-08-16T11:38:01.208Z,32.67
2018-08-16T11:39:01.231Z,33.31
2018-08-16T11:40:01.229Z,33.78
2018-08-16T11:41:01.266Z,33.20
2018-08-16T11:42:01.274Z,33.27
2018-08-16T11:43:01.291Z,32.98
2018-08-16T11:44:01.301Z,32.06
2018-08-16T11:45:01.327Z,32.30
2018-08-16T11:46:01.325Z,31.98
2018-08-16T11:47:01.354Z,31.80
2018-08-16T11:48:01.368Z,31.35
2018-08-16T11:49:01.382Z,32.02
2018-08-16T11:50:01.403Z,31.73
2018-08-16T11:51:01.420Z,31.54
2018-08-16T11:52:01.432Z,30.75
2018-08-16T11:53:01.450Z,31.36
2018-08-16T11:54:01.463Z,31.38
2018-08-16T11:55:01.483Z,31.61
2018-08-16T11:56:01.519Z,30.99
2018-08-16T11:57:01.524Z,31.05
2018-08-16T11:58:01.535Z,31.13
2018-08-16T11:59:01.552Z,31.30
2018-08-16T12:00:01.563Z,31.72
2018-08-16T12:01:01.588Z,31.72
2018-08-16T12:02:01.657Z,31.99
2018-08-16T12:03:01.612Z,32.40
2018-08-16T12:04:01.625Z,32.15
2018-08-16T12:05:01.642Z,32.62
2018-08-16T12:06:01.671Z,33.11
2018-08-16T12:07:01.680Z,32.17
2018-08-16T12:08:01.692Z,32.32
2018-08-16T12:09:01.706Z,31.98
2018-08-16T12:10:01.716Z,32.86
2018-08-16T12:11:01.738Z,32.86
2018-08-16T12:12:01.759Z,33.10
2018-08-16T12:13:01.780Z,33.48
2018-08-16T12:14:01.788Z,32.18
2018-08-16T12:15:01.833Z,31.96
2018-08-16T12:16:01.816Z,32.40
2018-08-16T12:17:01.836Z,33.03
2018-08-16T12:18:01.859Z,32.85
2018-08-16T12:19:01.867Z,33.06
2018-08-16T12:20:01.890Z,32.88
2018-08-16T12:21:01.968Z,32.64
2018-08-16T12:22:01.909Z,32.69
2018-08-16T12:23:01.932Z,32.52
2018-08-16T12:24:01.945Z,32.39
2018-08-16T12:25:01.984Z,32.35
2018-08-16T12:26:01.985Z,31.65
2018-08-16T12:27:01.988Z,31.75
2018-08-16T12:28:02.019Z,31.27
2018-08-16T12:29:02.062Z,30.19
2018-08-16T12:30:02.048Z,29.52
2018-08-16T12:31:02.058Z,29.63
2018-08-16T12:32:02.077Z,29.23
2018-08-16T12:33:02.089Z,29.43
2018-08-16T12:34:02.112Z,29.34
2018-08-16T12:35:02.207Z,29.22
2018-08-16T12:36:02.137Z,29.38
2018-08-16T12:37:02.147Z,29.38
2018-08-16T12:38:02.163Z,29.08
2018-08-16T12:39:02.161Z,28.81
2018-08-16T12:40:02.184Z,28.58
2018-08-16T12:41:02.255Z,28.65
2018-08-16T12:42:02.198Z,28.95
2018-08-16T12:43:02.210Z,28.91
2018-08-16T12:44:02.220Z,29.04
2018-08-16T12:45:02.238Z,28.69
2018-08-16T12:46:02.251Z,28.69
2018-08-16T12:47:02.254Z,28.68
2018-08-16T12:48:02.252Z,28.69
2018-08-16T12:49:02.260Z,28.50
2018-08-16T12:50:02.269Z,28.46
2018-08-16T12:51:02.292Z,28.69
2018-08-16T12:52:02.284Z,28.81
2018-08-16T12:53:02.293Z,28.95
2018-08-16T12:54:02.311Z,28.87
2018-08-16T12:55:02.315Z,28.69
2018-08-16T12:56:02.324Z,28.23
2018-08-16T12:57:02.336Z,27.91
2018-08-16T12:58:02.337Z,27.92
2018-08-16T12:59:02.332Z,27.76
2018-08-16T13:00:02.352Z,27.76
2018-08-16T13:01:02.350Z,27.70
2018-08-16T13:02:02.360Z,27.67
2018-08-16T13:03:02.367Z,27.48
2018-08-16T13:04:02.369Z,27.47
2018-08-16T13:05:02.383Z,27.33
2018-08-16T13:06:02.382Z,27.26
2018-08-16T13:07:02.385Z,27.41
2018-08-16T13:08:02.396Z,27.46
2018-08-16T13:09:02.422Z,27.47
2018-08-16T13:10:02.401Z,27.53
2018-08-16T13:11:02.418Z,27.57
2018-08-16T13:12:02.410Z,27.67
2018-08-16T13:13:02.413Z,27.91
2018-08-16T13:14:02.419Z,27.91
2018-08-16T13:15:02.444Z,27.82
2018-08-16T13:16:02.459Z,27.88
2018-08-16T13:17:02.438Z,27.85
2018-08-16T13:18:02.431Z,27.73
2018-08-16T13:19:02.450Z,27.74
2018-08-16T13:20:02.456Z,27.69
2018-08-16T13:21:02.451Z,27.66
2018-08-16T13:22:02.453Z,27.69
2018-08-16T13:23:02.467Z,27.62
2018-08-16T13:24:02.479Z,27.88
2018-08-16T13:25:02.473Z,27.94
2018-08-16T13:26:02.482Z,27.88